createdAt,value
2018-04-15T00:00:23.430Z,12.71
2018-04-15T00:02:51.235Z,12.71
2018-04-15T00:05:18.821Z,12.66
2018-04-15T00:07:46.422Z,12.70
2018-04-15T00:10:14.054Z,12.71
2018-04-15T00:12:41.650Z,12.66
2018-04-15T00:15:09.271Z,12.63
2018-04-15T00:17:36.858Z,12.67
2018-04-15T00:20:04.474Z,12.64
2018-04-15T00:22:32.085Z,12.58
2018-04-15T00:24:59.719Z,12.58
2018-04-15T00:27:27.548Z,12.59
2018-04-15T00:29:55.188Z,12.56
2018-04-15T00:32:22.793Z,12.58
2018-04-15T00:34:50.386Z,12.57
2018-04-15T00:37:18.012Z,12.58
2018-04-15T00:39:45.611Z,12.60
2018-04-15T00:42:13.261Z,12.56
2018-04-15T00:44:40.854Z,12.52
2018-04-15T00:47:08.444Z,12.51
2018-04-15T00:49:36.074Z,12.41
2018-04-15T00:52:03.667Z,12.39
2018-04-15T00:54:31.282Z,12.37
2018-04-15T00:56:58.992Z,12.42
2018-04-15T00:59:26.628Z,12.43
2018-04-15T01:01:54.230Z,12.46
2018-04-15T01:04:21.826Z,12.47
2018-04-15T01:06:49.436Z,12.45
2018-04-15T01:09:17.100Z,12.41
2018-04-15T01:11:44.761Z,12.32
2018-04-15T01:14:12.356Z,12.24
2018-04-15T01:16:40.004Z,12.20
2018-04-15T01:19:07.611Z,12.20
2018-04-15T01:21:35.206Z,12.16
2018-04-15T01:24:02.837Z,12.14
2018-04-15T01:26:30.430Z,12.02
2018-04-15T01:28:58.046Z,11.95
2018-04-15T01:31:25.686Z,11.94
2018-04-15T01:33:53.298Z,11.90
2018-04-15T01:36:20.955Z,11.85
2018-04-15T01:38:48.574Z,11.73
2018-04-15T01:41:16.164Z,11.74
2018-04-15T01:43:43.781Z,11.75
2018-04-15T01:46:11.402Z,11.77
2018-04-15T01:48:38.993Z,11.78
2018-04-15T01:51:06.615Z,11.77
2018-04-15T01:53:34.214Z,11.69
2018-04-15T01:56:01.850Z,11.62
2018-04-15T01:58:29.444Z,11.62
2018-04-15T02:00:57.038Z,11.61
2018-04-15T02:03:24.645Z,11.58
2018-04-15T02:05:52.245Z,11.58
2018-04-15T02:08:19.871Z,11.55
2018-04-15T02:10:47.467Z,11.60
2018-04-15T02:13:15.088Z,11.64
2018-04-15T02:15:42.935Z,11.65
2018-04-15T02:18:10.524Z,11.64
2018-04-15T02:20:38.386Z,11.64
2018-04-15T02:23:05.992Z,11.57
2018-04-15T02:25:33.593Z,11.58
2018-04-15T02:28:01.204Z,11.39
2018-04-15T02:30:29.294Z,11.36
2018-04-15T02:32:56.919Z,11.21
2018-04-15T02:35:24.518Z,11.17
2018-04-15T02:37:52.152Z,11.21
2018-04-15T02:40:19.750Z,11.25
2018-04-15T02:42:47.343Z,11.27
2018-04-15T02:45:14.965Z,11.25
2018-04-15T02:47:42.565Z,11.21
2018-04-15T02:50:10.195Z,11.19
2018-04-15T02:52:37.815Z,11.11
2018-04-15T02:55:05.445Z,11.04
2018-04-15T02:57:33.044Z,11.03
2018-04-15T03:00:00.645Z,10.93
2018-04-15T03:02:28.263Z,10.80
2018-04-15T03:04:55.875Z,10.69
2018-04-15T03:07:23.503Z,10.52
2018-04-15T03:09:51.120Z,10.49
2018-04-15T03:12:18.850Z,10.49
2018-04-15T03:14:46.456Z,10.50
2018-04-15T03:17:14.050Z,10.52
2018-04-15T03:19:41.680Z,10.48
2018-04-15T03:22:09.315Z,10.41
2018-04-15T03:24:36.946Z,10.40
2018-04-15T03:27:04.542Z,10.37
2018-04-15T03:29:32.181Z,10.43
2018-04-15T03:31:59.778Z,10.42
2018-04-15T03:34:27.366Z,10.47
2018-04-15T03:36:54.989Z,10.46
2018-04-15T03:39:22.603Z,10.50
2018-04-15T03:41:50.535Z,10.50
2018-04-15T03:44:18.126Z,10.56
2018-04-15T03:46:45.950Z,10.47
2018-04-15T03:49:13.550Z,10.49
2018-04-15T03:51:41.148Z,10.50
2018-04-15T03:54:08.765Z,10.53
2018-04-15T03:56:36.346Z,10.57
2018-04-15T03:59:03.965Z,10.56
2018-04-15T04:01:31.558Z,10.56
2018-04-15T04:03:59.391Z,10.41
2018-04-15T04:06:26.978Z,10.20
2018-04-15T04:08:54.562Z,10.10
2018-04-15T04:11:22.184Z,10.05
2018-04-15T04:13:49.783Z,10.11
2018-04-15T04:16:17.399Z,10.13
2018-04-15T04:18:56.734Z,10.14
2018-04-15T04:21:36.202Z,10.19
2018-04-15T04:24:15.697Z,10.27
2018-04-15T04:26:43.546Z,10.28
2018-04-15T04:29:11.144Z,10.26
2018-04-15T04:31:40.414Z,10.25
2018-04-15T04:34:08.043Z,10.26
2018-04-15T04:36:35.641Z,10.19
2018-04-15T04:39:03.283Z,10.18
2018-04-15T04:41:30.878Z,10.17
2018-04-15T04:43:58.474Z,10.16
2018-04-15T04:46:26.092Z,10.25
2018-04-15T04:48:53.683Z,10.24
2018-04-15T04:51:21.737Z,10.17
2018-04-15T04:53:49.342Z,10.24
2018-04-15T04:56:16.940Z,10.19
2018-04-15T04:58:44.574Z,10.24
2018-04-15T05:01:12.170Z,10.30
2018-04-15T05:03:39.943Z,10.33
2018-04-15T05:06:07.551Z,10.36
2018-04-15T05:08:35.152Z,10.36
2018-04-15T05:11:02.766Z,10.40
2018-04-15T05:13:30.359Z,10.39
2018-04-15T05:15:57.978Z,10.46
2018-04-15T05:18:25.571Z,10.46
2018-04-15T05:20:53.200Z,10.38
2018-04-15T05:23:20.791Z,10.34
2018-04-15T05:25:48.384Z,10.35
2018-04-15T05:28:15.997Z,10.42
2018-04-15T05:30:43.586Z,10.50
2018-04-15T05:33:11.215Z,10.40
2018-04-15T05:35:38.803Z,10.48
2018-04-15T05:38:06.597Z,10.40
2018-04-15T05:40:34.231Z,10.37
2018-04-15T05:43:01.826Z,10.39
2018-04-15T05:45:29.466Z,10.39
2018-04-15T05:47:57.077Z,10.43
2018-04-15T05:50:24.692Z,10.47
2018-04-15T05:52:52.295Z,10.53
2018-04-15T05:55:19.922Z,10.67
2018-04-15T05:57:47.555Z,10.69
2018-04-15T06:00:15.171Z,10.72
2018-04-15T06:02:42.802Z,10.74
2018-04-15T06:05:10.402Z,10.74
2018-04-15T06:07:38.014Z,10.67
2018-04-15T06:10:05.608Z,10.70
2018-04-15T06:12:33.234Z,10.82
2018-04-15T06:15:00.822Z,10.94
2018-04-15T06:17:28.435Z,10.89
2018-04-15T06:19:56.046Z,10.98
2018-04-15T06:22:23.648Z,11.02
2018-04-15T06:24:51.267Z,11.03
2018-04-15T06:27:18.858Z,11.02
2018-04-15T06:29:46.502Z,11.19
2018-04-15T06:32:14.107Z,11.33
2018-04-15T06:34:41.699Z,11.48
2018-04-15T06:37:09.328Z,11.46
2018-04-15T06:39:36.923Z,11.44
2018-04-15T06:42:04.661Z,11.68
2018-04-15T06:44:32.258Z,11.69
2018-04-15T06:46:59.957Z,11.70
2018-04-15T06:49:27.591Z,11.81
2018-04-15T06:51:55.213Z,11.89
2018-04-15T06:54:23.014Z,11.92
2018-04-15T06:56:50.603Z,11.99
2018-04-15T06:59:18.189Z,12.05
2018-04-15T07:01:45.835Z,12.24
2018-04-15T07:04:13.427Z,12.41
2018-04-15T07:06:41.040Z,12.51
2018-04-15T07:09:08.642Z,12.59
2018-04-15T07:11:36.351Z,12.61
2018-04-15T07:14:03.962Z,12.68
2018-04-15T07:16:31.609Z,12.73
2018-04-15T07:18:59.234Z,12.79
2018-04-15T07:23:53.768Z,13.01
2018-04-15T07:26:21.377Z,13.13
2018-04-15T07:28:49.158Z,13.16
2018-04-15T07:31:16.767Z,13.25
2018-04-15T07:33:44.385Z,13.52
2018-04-15T07:36:12.007Z,13.63
2018-04-15T07:38:39.606Z,13.68
2018-04-15T07:41:07.226Z,13.74
2018-04-15T07:43:34.807Z,13.82
2018-04-15T07:46:02.599Z,13.77
2018-04-15T07:48:30.205Z,13.93
2018-04-15T07:50:57.798Z,14.01
2018-04-15T07:53:25.445Z,14.03
2018-04-15T07:55:53.044Z,14.03
2018-04-15T07:58:20.663Z,14.16
2018-04-15T08:00:48.262Z,14.37
2018-04-15T08:03:16.160Z,14.41
2018-04-15T08:05:43.760Z,14.36
2018-04-15T08:08:11.360Z,14.44
2018-04-15T08:10:38.992Z,14.55
2018-04-15T08:13:06.602Z,14.45
2018-04-15T08:15:34.299Z,14.62
2018-04-15T08:18:01.894Z,14.51
2018-04-15T08:20:29.528Z,14.43
2018-04-15T08:22:57.129Z,14.34
2018-04-15T08:25:24.722Z,14.65
2018-04-15T08:27:52.338Z,14.42
2018-04-15T08:30:19.934Z,14.52
2018-04-15T08:32:47.583Z,14.64
2018-04-15T08:35:15.175Z,14.78
2018-04-15T08:37:42.799Z,14.82
2018-04-15T08:40:10.391Z,14.98
2018-04-15T08:42:37.978Z,15.07
2018-04-15T08:45:05.597Z,15.12
2018-04-15T08:47:33.189Z,15.33
2018-04-15T08:50:00.810Z,15.57
2018-04-15T08:52:28.522Z,15.57
2018-04-15T08:54:56.326Z,15.70
2018-04-15T08:57:23.921Z,15.77
2018-04-15T08:59:51.514Z,15.73
2018-04-15T09:02:19.210Z,15.90
2018-04-15T09:04:46.807Z,15.94
2018-04-15T09:07:14.431Z,16.04
2018-04-15T09:09:42.040Z,16.13
2018-04-15T09:12:09.665Z,16.10
2018-04-15T09:14:37.261Z,16.21
2018-04-15T09:17:04.846Z,16.44
2018-04-15T09:19:32.456Z,16.50
2018-04-15T09:22:00.063Z,16.48
2018-04-15T09:24:27.697Z,16.54
2018-04-15T09:26:55.282Z,16.44
2018-04-15T09:29:23.086Z,16.66
2018-04-15T09:31:50.666Z,16.68
2018-04-15T09:34:18.256Z,16.72
2018-04-15T09:36:45.882Z,16.82
2018-04-15T09:39:13.478Z,16.83
2018-04-15T09:41:41.099Z,16.83
2018-04-15T09:44:08.970Z,16.86
2018-04-15T09:46:36.818Z,16.87
2018-04-15T09:49:04.410Z,16.78
2018-04-15T09:51:32.012Z,16.85
2018-04-15T09:53:59.632Z,17.09
2018-04-15T09:56:27.245Z,17.26
2018-04-15T09:58:54.863Z,17.06
2018-04-15T10:01:22.478Z,16.82
2018-04-15T10:03:50.267Z,17.01
2018-04-15T10:06:17.863Z,17.19
2018-04-15T10:08:45.467Z,17.17
2018-04-15T10:11:13.077Z,17.52
2018-04-15T10:13:40.850Z,17.70
2018-04-15T10:16:08.462Z,17.62
2018-04-15T10:18:36.047Z,17.71
2018-04-15T10:21:04.001Z,17.67
2018-04-15T10:23:31.594Z,17.37
2018-04-15T10:25:59.223Z,17.66
2018-04-15T10:28:26.839Z,17.76
2018-04-15T10:30:54.442Z,17.87
2018-04-15T10:33:22.070Z,17.94
2018-04-15T10:35:49.662Z,18.07
2018-04-15T10:38:17.391Z,18.01
2018-04-15T10:40:45.023Z,17.97
2018-04-15T10:43:12.612Z,18.06
2018-04-15T10:45:40.265Z,18.05
2018-04-15T10:48:07.870Z,18.20
2018-04-15T10:50:35.516Z,18.13
2018-04-15T10:53:03.126Z,18.10
2018-04-15T10:55:30.707Z,17.92
2018-04-15T10:57:58.331Z,18.01
2018-04-15T11:00:25.927Z,18.12
2018-04-15T11:02:53.555Z,18.16
2018-04-15T11:05:21.146Z,18.51
2018-04-15T11:07:48.970Z,18.81
2018-04-15T11:10:16.558Z,18.88
2018-04-15T11:12:44.161Z,19.20
2018-04-15T11:15:11.771Z,19.07
2018-04-15T11:17:39.365Z,18.92
2018-04-15T11:20:07.003Z,18.97
2018-04-15T11:22:34.643Z,19.14
2018-04-15T11:25:02.305Z,19.36
2018-04-15T11:27:29.891Z,19.74
2018-04-15T11:29:57.498Z,19.83
2018-04-15T11:32:25.196Z,19.88
2018-04-15T11:34:52.795Z,19.78
2018-04-15T11:37:20.418Z,19.77
2018-04-15T11:39:48.036Z,19.92
2018-04-15T11:42:15.663Z,20.05
2018-04-15T11:44:43.273Z,20.26
2018-04-15T11:47:10.866Z,20.11
2018-04-15T11:49:38.627Z,19.94
2018-04-15T11:52:06.223Z,19.59
2018-04-15T11:54:33.831Z,19.84
2018-04-15T11:57:01.430Z,20.34
2018-04-15T11:59:29.065Z,20.62
2018-04-15T12:01:56.667Z,20.64
2018-04-15T12:04:24.322Z,20.82
2018-04-15T12:06:51.914Z,21.04
2018-04-15T12:09:19.533Z,21.16
2018-04-15T12:11:47.162Z,21.33
2018-04-15T12:14:14.759Z,21.58
2018-04-15T12:16:42.378Z,21.65
2018-04-15T12:19:10.067Z,21.68
2018-04-15T12:21:37.693Z,21.64
2018-04-15T12:24:05.298Z,21.56
2018-04-15T12:26:32.914Z,21.39
2018-04-15T12:29:00.523Z,20.96
2018-04-15T12:31:28.478Z,21.16
2018-04-15T12:33:56.093Z,21.46
2018-04-15T12:36:23.697Z,21.23
2018-04-15T12:38:51.317Z,21.10
2018-04-15T12:41:18.915Z,20.99
2018-04-15T12:43:46.581Z,20.79
2018-04-15T12:46:14.167Z,21.08
2018-04-15T12:48:42.003Z,21.53
2018-04-15T12:51:10.486Z,22.35
2018-04-15T12:53:38.300Z,22.89
2018-04-15T12:56:05.900Z,23.55
2018-04-15T12:58:33.500Z,23.88
2018-04-15T13:01:01.443Z,23.04
2018-04-15T13:03:29.045Z,23.09
2018-04-15T13:05:56.674Z,22.40
2018-04-15T13:08:24.280Z,22.22
2018-04-15T13:10:51.862Z,22.74
2018-04-15T13:13:19.482Z,22.94
2018-04-15T13:15:47.077Z,22.48
2018-04-15T13:18:14.871Z,22.68
2018-04-15T13:20:42.462Z,22.66
2018-04-15T13:23:10.061Z,22.94
2018-04-15T13:25:37.689Z,23.68
2018-04-15T13:28:05.284Z,24.13
2018-04-15T13:30:32.914Z,25.39
2018-04-15T13:33:00.547Z,25.48
2018-04-15T13:35:28.168Z,25.52
2018-04-15T13:37:55.772Z,24.35
2018-04-15T13:40:23.563Z,24.43
2018-04-15T13:42:51.146Z,23.69
2018-04-15T13:45:18.745Z,24.62
2018-04-15T13:47:46.365Z,24.40
2018-04-15T13:50:13.955Z,24.63
2018-04-15T13:52:41.578Z,24.21
2018-04-15T13:55:09.176Z,23.86
2018-04-15T13:57:37.376Z,24.56
2018-04-15T14:00:04.976Z,25.26
2018-04-15T14:02:32.570Z,24.78
2018-04-15T14:05:00.181Z,24.40
2018-04-15T14:07:27.780Z,23.83
2018-04-15T14:09:55.390Z,23.84
2018-04-15T14:12:22.992Z,23.56
2018-04-15T14:14:50.638Z,23.24
2018-04-15T14:17:18.231Z,22.85
2018-04-15T14:19:45.828Z,22.96
2018-04-15T14:22:13.472Z,22.83
2018-04-15T14:24:41.079Z,23.01
2018-04-15T14:27:08.696Z,23.01
2018-04-15T14:29:36.289Z,23.05
2018-04-15T14:32:04.059Z,22.84
2018-04-15T14:34:31.648Z,22.75
2018-04-15T14:36:59.241Z,22.55
2018-04-15T14:39:26.882Z,22.07
2018-04-15T14:41:54.482Z,22.01
2018-04-15T14:44:22.093Z,21.81
2018-04-15T14:46:49.681Z,21.87
2018-04-15T14:49:17.566Z,22.06
2018-04-15T14:51:45.153Z,21.95
2018-04-15T14:54:12.743Z,22.09
2018-04-15T14:56:41.324Z,22.33
2018-04-15T14:59:08.964Z,22.29
2018-04-15T15:01:36.800Z,22.60
2018-04-15T15:04:04.413Z,22.57
2018-04-15T15:06:32.010Z,22.52
2018-04-15T15:08:59.627Z,22.42
2018-04-15T15:11:27.216Z,22.43
2018-04-15T15:13:54.833Z,22.37
2018-04-15T15:16:22.437Z,22.19
2018-04-15T15:18:50.074Z,22.29
2018-04-15T15:21:17.674Z,21.95
2018-04-15T15:23:45.261Z,21.82
2018-04-15T15:26:12.892Z,21.80
2018-04-15T15:28:40.490Z,21.97
2018-04-15T15:31:08.102Z,21.98
2018-04-15T15:33:35.694Z,22.01
2018-04-15T15:36:03.333Z,21.92
2018-04-15T15:38:30.939Z,21.85
2018-04-15T15:40:58.540Z,21.63
2018-04-15T15:43:26.156Z,21.61
2018-04-15T15:45:53.747Z,21.35
2018-04-15T15:48:21.364Z,21.12
2018-04-15T15:50:48.951Z,21.10
2018-04-15T15:53:16.612Z,21.11
2018-04-15T15:55:44.218Z,21.14
2018-04-15T15:58:11.915Z,21.21
2018-04-15T16:00:39.528Z,21.16
2018-04-15T16:03:07.127Z,21.18
2018-04-15T16:05:34.740Z,21.13
2018-04-15T16:08:02.333Z,21.17
2018-04-15T16:10:30.119Z,21.26
2018-04-15T16:12:57.775Z,21.28
2018-04-15T16:15:25.375Z,21.21
2018-04-15T16:17:53.010Z,21.17
2018-04-15T16:20:20.619Z,21.10
2018-04-15T16:22:48.991Z,21.02
2018-04-15T16:25:16.585Z,20.97
2018-04-15T16:27:44.199Z,20.88
2018-04-15T16:30:11.784Z,20.82
2018-04-15T16:32:39.595Z,20.65
2018-04-15T16:35:07.182Z,20.63
2018-04-15T16:37:34.786Z,20.67
2018-04-15T16:40:02.411Z,20.47
2018-04-15T16:42:30.011Z,20.46
2018-04-15T16:44:57.727Z,20.40
2018-04-15T16:47:25.311Z,20.39
2018-04-15T16:49:53.331Z,20.24
2018-04-15T16:52:20.955Z,20.24
2018-04-15T16:54:48.537Z,20.20
2018-04-15T16:57:16.174Z,20.16
2018-04-15T16:59:43.768Z,20.15
2018-04-15T17:02:11.420Z,20.11
2018-04-15T17:04:39.127Z,20.06
2018-04-15T17:07:06.858Z,20.06
2018-04-15T17:09:34.471Z,20.06
2018-04-15T17:12:02.092Z,20.00
2018-04-15T17:14:29.725Z,19.96
2018-04-15T17:16:57.335Z,19.89
2018-04-15T17:19:24.957Z,19.87
2018-04-15T17:21:52.550Z,19.86
2018-04-15T17:24:20.501Z,19.84
2018-04-15T17:26:48.085Z,19.78
2018-04-15T17:29:15.675Z,19.71
2018-04-15T17:31:43.289Z,19.67
2018-04-15T17:34:10.955Z,19.62
2018-04-15T17:36:38.819Z,19.60
2018-04-15T17:39:06.415Z,19.53
2018-04-15T17:41:34.010Z,19.53
2018-04-15T17:44:01.634Z,19.53
2018-04-15T17:46:29.232Z,19.45
2018-04-15T17:48:57.035Z,19.40
2018-04-15T17:51:24.635Z,19.40
2018-04-15T17:53:52.654Z,19.36
2018-04-15T17:56:20.265Z,19.30
2018-04-15T17:58:47.948Z,19.25
2018-04-15T18:01:15.575Z,19.18
2018-04-15T18:03:43.164Z,19.11
2018-04-15T18:06:10.792Z,19.08
2018-04-15T18:08:38.388Z,19.03
2018-04-15T18:11:06.041Z,19.02
2018-04-15T18:13:33.658Z,18.99
2018-04-15T18:16:01.243Z,18.98
2018-04-15T18:18:28.866Z,19.01
2018-04-15T18:20:56.459Z,18.99
2018-04-15T18:23:24.120Z,19.01
2018-04-15T18:25:51.712Z,19.06
2018-04-15T18:28:19.519Z,18.96
2018-04-15T18:30:47.123Z,18.93
2018-04-15T18:33:14.751Z,18.89
2018-04-15T18:35:42.371Z,18.96
2018-04-15T18:38:09.969Z,18.93
2018-04-15T18:40:37.595Z,18.89
2018-04-15T18:43:05.430Z,18.87
2018-04-15T18:45:33.070Z,18.83
2018-04-15T18:48:00.670Z,18.78
2018-04-15T18:50:28.269Z,18.78
2018-04-15T18:52:55.893Z,18.75
2018-04-15T18:55:23.515Z,18.73
2018-04-15T18:57:51.368Z,18.73
2018-04-15T19:00:18.962Z,18.73
2018-04-15T19:02:46.578Z,18.62
2018-04-15T19:05:14.215Z,18.46
2018-04-15T19:07:41.819Z,18.65
2018-04-15T19:10:09.443Z,18.59
2018-04-15T19:12:37.058Z,18.63
2018-04-15T19:15:04.909Z,18.59
2018-04-15T19:17:32.515Z,18.49
2018-04-15T19:20:00.109Z,18.52
2018-04-15T19:22:27.857Z,18.48
2018-04-15T19:24:55.472Z,18.40
2018-04-15T19:27:23.105Z,18.40
2018-04-15T19:29:50.695Z,18.36
2018-04-15T19:32:18.542Z,18.33
2018-04-15T19:34:46.150Z,18.41
2018-04-15T19:37:13.741Z,18.33
2018-04-15T19:39:41.366Z,18.31
2018-04-15T19:42:08.993Z,18.24
2018-04-15T19:44:36.658Z,18.23
2018-04-15T19:47:04.243Z,18.21
2018-04-15T19:49:32.098Z,18.21
2018-04-15T19:51:59.708Z,18.17
2018-04-15T19:54:27.298Z,18.15
2018-04-15T19:56:54.937Z,18.13
2018-04-15T19:59:22.531Z,18.16
2018-04-15T20:01:50.150Z,18.13
2018-04-15T20:04:17.750Z,18.08
2018-04-15T20:06:45.403Z,18.07
2018-04-15T20:09:13.001Z,18.04
2018-04-15T20:11:40.594Z,17.98
2018-04-15T20:14:08.228Z,17.95
2018-04-15T20:16:35.832Z,17.90
2018-04-15T20:19:03.446Z,17.90
2018-04-15T20:21:31.044Z,17.79
2018-04-15T20:23:58.710Z,17.67
2018-04-15T20:26:26.296Z,17.59
2018-04-15T20:28:53.943Z,17.60
2018-04-15T20:31:21.559Z,17.66
2018-04-15T20:33:49.152Z,17.63
2018-04-15T20:36:16.775Z,17.67
2018-04-15T20:38:44.370Z,17.68
2018-04-15T20:41:11.995Z,17.79
2018-04-15T20:43:39.634Z,17.61
2018-04-15T20:46:07.662Z,17.47
2018-04-15T20:48:35.251Z,17.43
2018-04-15T20:51:02.842Z,17.49
2018-04-15T20:53:30.457Z,17.49
2018-04-15T20:55:58.053Z,17.43
2018-04-15T20:58:25.715Z,17.42
2018-04-15T21:00:53.308Z,17.38
2018-04-15T21:03:21.068Z,17.36
2018-04-15T21:05:48.674Z,17.74
2018-04-15T21:08:16.270Z,17.39
2018-04-15T21:10:43.888Z,17.45
2018-04-15T21:13:11.480Z,17.44
2018-04-15T21:15:39.096Z,17.38
2018-04-15T21:18:06.687Z,17.50
2018-04-15T21:20:34.466Z,17.36
2018-04-15T21:23:02.074Z,17.57
2018-04-15T21:25:29.678Z,17.33
2018-04-15T21:27:57.326Z,17.63
2018-04-15T21:30:24.927Z,17.37
2018-04-15T21:32:52.577Z,17.32
2018-04-15T21:35:20.173Z,17.25
2018-04-15T21:37:47.992Z,17.26
2018-04-15T21:40:15.585Z,17.15
2018-04-15T21:42:43.183Z,17.40
2018-04-15T21:45:10.886Z,17.36
2018-04-15T21:47:38.533Z,17.30
2018-04-15T21:50:06.210Z,17.17
2018-04-15T21:52:33.798Z,17.26
2018-04-15T21:55:01.625Z,17.19
2018-04-15T21:57:29.219Z,17.22
2018-04-15T21:59:56.813Z,17.00
2018-04-15T22:02:24.430Z,17.02
2018-04-15T22:04:52.027Z,17.01
2018-04-15T22:07:19.655Z,17.11
2018-04-15T22:09:47.262Z,17.07
2018-04-15T22:12:14.891Z,17.09
2018-04-15T22:14:42.558Z,17.17
2018-04-15T22:17:10.128Z,17.26
2018-04-15T22:19:37.747Z,17.15
2018-04-15T22:22:05.367Z,17.21
2018-04-15T22:24:33.003Z,17.34
2018-04-15T22:27:00.598Z,17.20
2018-04-15T22:29:28.200Z,17.18
2018-04-15T22:31:55.820Z,17.09
2018-04-15T22:34:23.412Z,17.17
2018-04-15T22:36:51.004Z,17.03
2018-04-15T22:39:18.622Z,16.86
2018-04-15T22:41:46.228Z,16.89
2018-04-15T22:44:13.822Z,16.91
2018-04-15T22:46:41.426Z,16.86
2018-04-15T22:49:14.406Z,16.87
2018-04-15T22:51:42.029Z,16.83
2018-04-15T22:54:09.682Z,16.77
2018-04-15T22:56:43.357Z,16.82
2018-04-15T22:59:10.964Z,16.82
2018-04-15T23:01:38.561Z,16.82
2018-04-15T23:04:06.178Z,16.83
2018-04-15T23:06:33.844Z,16.81
2018-04-15T23:09:01.467Z,16.72
2018-04-15T23:11:29.062Z,16.80
2018-04-15T23:13:56.676Z,16.75
2018-04-15T23:16:24.265Z,16.67
2018-04-15T23:18:51.895Z,16.55
2018-04-15T23:21:19.492Z,16.52
2018-04-15T23:23:47.082Z,16.52
2018-04-15T23:26:14.703Z,16.48
2018-04-15T23:28:42.290Z,16.53
2018-04-15T23:31:09.907Z,16.64
2018-04-15T23:33:37.503Z,16.60
2018-04-15T23:36:05.222Z,16.55
2018-04-15T23:38:32.842Z,16.53
2018-04-15T23:41:00.439Z,16.34
2018-04-15T23:43:28.059Z,16.33
2018-04-15T23:45:55.650Z,16.29
2018-04-15T23:48:23.275Z,16.26
2018-04-15T23:50:50.875Z,16.20
2018-04-15T23:53:18.861Z,16.03
2018-04-15T23:55:46.473Z,16.06
2018-04-15T23:58:14.066Z,15.97
